sensor_id;sensor_type;location;lat;lon;timestamp;P1;durP1;ratioP1;P2;durP2;ratioP2
830;SDS011;397;50.564;7.272;2023-05-20T00:00:09;4.10;;;2.67;;
830;SDS011;397;50.564;7.272;2023-05-20T00:02:37;5.43;;;3.30;;
830;SDS011;397;50.564;7.272;2023-05-20T00:05:05;7.30;;;3.50;;
830;SDS011;397;50.564;7.272;2023-05-20T00:07:33;4.30;;;3.37;;
830;SDS011;397;50.564;7.272;2023-05-20T00:10:01;6.53;;;3.13;;
830;SDS011;397;50.564;7.272;2023-05-20T00:12:28;9.10;;;4.07;;
830;SDS011;397;50.564;7.272;2023-05-20T00:14:56;4.50;;;2.73;;
830;SDS011;397;50.564;7.272;2023-05-20T00:17:23;3.80;;;2.60;;
830;SDS011;397;50.564;7.272;2023-05-20T00:19:53;4.40;;;3.33;;
830;SDS011;397;50.564;7.272;2023-05-20T00:22:21;4.70;;;3.20;;
830;SDS011;397;50.564;7.272;2023-05-20T00:24:48;4.10;;;3.23;;
830;SDS011;397;50.564;7.272;2023-05-20T00:27:16;3.60;;;2.73;;
830;SDS011;397;50.564;7.272;2023-05-20T00:29:43;4.07;;;2.67;;
830;SDS011;397;50.564;7.272;2023-05-20T00:32:11;4.57;;;3.40;;
830;SDS011;397;50.564;7.272;2023-05-20T00:34:39;4.17;;;3.17;;
830;SDS011;397;50.564;7.272;2023-05-20T00:37:08;3.30;;;2.73;;
830;SDS011;397;50.564;7.272;2023-05-20T00:39:35;3.40;;;2.70;;
830;SDS011;397;50.564;7.272;2023-05-20T00:42:03;6.07;;;2.87;;
830;SDS011;397;50.564;7.272;2023-05-20T00:44:30;3.73;;;2.80;;
830;SDS011;397;50.564;7.272;2023-05-20T00:46:58;4.97;;;3.17;;
830;SDS011;397;50.564;7.272;2023-05-20T00:49:27;3.40;;;2.70;;
830;SDS011;397;50.564;7.272;2023-05-20T00:51:54;4.90;;;2.90;;
830;SDS011;397;50.564;7.272;2023-05-20T00:54:22;3.80;;;3.27;;
830;SDS011;397;50.564;7.272;2023-05-20T00:56:49;4.80;;;2.73;;
830;SDS011;397;50.564;7.272;2023-05-20T00:59:17;6.43;;;2.40;;
830;SDS011;397;50.564;7.272;2023-05-20T01:01:45;4.27;;;2.43;;
830;SDS011;397;50.564;7.272;2023-05-20T01:04:12;4.40;;;3.10;;
830;SDS011;397;50.564;7.272;2023-05-20T01:06:40;7.33;;;2.90;;
830;SDS011;397;50.564;7.272;2023-05-20T01:09:07;4.43;;;2.80;;
830;SDS011;397;50.564;7.272;2023-05-20T01:11:37;4.40;;;3.53;;
830;SDS011;397;50.564;7.272;2023-05-20T01:14:06;3.60;;;2.63;;
830;SDS011;397;50.564;7.272;2023-05-20T01:16:35;4.33;;;2.63;;
830;SDS011;397;50.564;7.272;2023-05-20T01:19:05;3.30;;;2.23;;
830;SDS011;397;50.564;7.272;2023-05-20T01:21:35;5.93;;;3.27;;
830;SDS011;397;50.564;7.272;2023-05-20T01:24:04;3.17;;;2.10;;
830;SDS011;397;50.564;7.272;2023-05-20T01:26:31;3.97;;;2.93;;
830;SDS011;397;50.564;7.272;2023-05-20T01:29:01;4.37;;;2.90;;
830;SDS011;397;50.564;7.272;2023-05-20T01:31:30;3.47;;;2.50;;
830;SDS011;397;50.564;7.272;2023-05-20T01:34:01;3.03;;;2.73;;
830;SDS011;397;50.564;7.272;2023-05-20T01:36:29;4.97;;;2.60;;
830;SDS011;397;50.564;7.272;2023-05-20T01:38:58;3.97;;;2.30;;
830;SDS011;397;50.564;7.272;2023-05-20T01:41:29;4.60;;;2.53;;
830;SDS011;397;50.564;7.272;2023-05-20T01:43:59;4.13;;;2.60;;
830;SDS011;397;50.564;7.272;2023-05-20T01:46:31;3.00;;;2.30;;
830;SDS011;397;50.564;7.272;2023-05-20T01:48:59;3.77;;;2.43;;
830;SDS011;397;50.564;7.272;2023-05-20T01:51:27;5.97;;;3.03;;
830;SDS011;397;50.564;7.272;2023-05-20T01:53:55;3.80;;;2.20;;
830;SDS011;397;50.564;7.272;2023-05-20T01:56:23;4.60;;;2.43;;
830;SDS011;397;50.564;7.272;2023-05-20T01:58:50;3.40;;;2.50;;
830;SDS011;397;50.564;7.272;2023-05-20T02:01:18;4.50;;;2.20;;
830;SDS011;397;50.564;7.272;2023-05-20T02:03:45;3.80;;;2.57;;
830;SDS011;397;50.564;7.272;2023-05-20T02:06:13;4.00;;;3.07;;
830;SDS011;397;50.564;7.272;2023-05-20T02:08:40;3.30;;;2.80;;
830;SDS011;397;50.564;7.272;2023-05-20T02:11:08;3.33;;;2.27;;
830;SDS011;397;50.564;7.272;2023-05-20T02:13:35;4.00;;;2.93;;
830;SDS011;397;50.564;7.272;2023-05-20T02:16:03;4.03;;;2.80;;
830;SDS011;397;50.564;7.272;2023-05-20T02:18:30;3.77;;;2.77;;
830;SDS011;397;50.564;7.272;2023-05-20T02:21:03;4.73;;;3.30;;
830;SDS011;397;50.564;7.272;2023-05-20T02:23:31;4.00;;;2.63;;
830;SDS011;397;50.564;7.272;2023-05-20T02:25:58;3.40;;;2.60;;
830;SDS011;397;50.564;7.272;2023-05-20T02:28:26;5.00;;;2.93;;
830;SDS011;397;50.564;7.272;2023-05-20T02:30:54;5.53;;;2.87;;
830;SDS011;397;50.564;7.272;2023-05-20T02:33:21;4.30;;;2.73;;
830;SDS011;397;50.564;7.272;2023-05-20T02:35:48;3.30;;;2.40;;
830;SDS011;397;50.564;7.272;2023-05-20T02:38:16;4.20;;;2.60;;
830;SDS011;397;50.564;7.272;2023-05-20T02:40:43;4.00;;;2.93;;
830;SDS011;397;50.564;7.272;2023-05-20T02:43:11;3.67;;;2.70;;
830;SDS011;397;50.564;7.272;2023-05-20T02:45:39;4.50;;;3.10;;
830;SDS011;397;50.564;7.272;2023-05-20T02:48:06;3.10;;;2.43;;
830;SDS011;397;50.564;7.272;2023-05-20T02:50:36;5.73;;;3.13;;
830;SDS011;397;50.564;7.272;2023-05-20T02:53:05;6.80;;;4.20;;
830;SDS011;397;50.564;7.272;2023-05-20T02:55:33;3.40;;;2.13;;
830;SDS011;397;50.564;7.272;2023-05-20T02:58:02;4.33;;;2.60;;
830;SDS011;397;50.564;7.272;2023-05-20T03:00:29;4.47;;;2.77;;
830;SDS011;397;50.564;7.272;2023-05-20T03:02:58;4.00;;;2.53;;
830;SDS011;397;50.564;7.272;2023-05-20T03:05:26;4.17;;;2.47;;
830;SDS011;397;50.564;7.272;2023-05-20T03:07:53;3.00;;;2.70;;
830;SDS011;397;50.564;7.272;2023-05-20T03:10:21;5.50;;;3.23;;
830;SDS011;397;50.564;7.272;2023-05-20T03:12:48;4.73;;;3.30;;
830;SDS011;397;50.564;7.272;2023-05-20T03:15:16;4.33;;;2.93;;
830;SDS011;397;50.564;7.272;2023-05-20T03:17:43;5.40;;;3.00;;
830;SDS011;397;50.564;7.272;2023-05-20T03:20:11;5.33;;;3.57;;
830;SDS011;397;50.564;7.272;2023-05-20T03:22:41;4.80;;;3.30;;
830;SDS011;397;50.564;7.272;2023-05-20T03:25:08;3.90;;;3.50;;
830;SDS011;397;50.564;7.272;2023-05-20T03:27:36;3.00;;;2.43;;
830;SDS011;397;50.564;7.272;2023-05-20T03:30:04;5.80;;;2.73;;
830;SDS011;397;50.564;7.272;2023-05-20T03:32:32;4.43;;;3.37;;
830;SDS011;397;50.564;7.272;2023-05-20T03:35:00;5.60;;;2.70;;
830;SDS011;397;50.564;7.272;2023-05-20T03:37:27;5.90;;;3.53;;
830;SDS011;397;50.564;7.272;2023-05-20T03:39:55;3.83;;;3.10;;
830;SDS011;397;50.564;7.272;2023-05-20T03:42:22;3.20;;;2.27;;
830;SDS011;397;50.564;7.272;2023-05-20T03:44:50;4.50;;;3.03;;
830;SDS011;397;50.564;7.272;2023-05-20T03:47:17;3.70;;;2.93;;
830;SDS011;397;50.564;7.272;2023-05-20T03:49:45;3.50;;;2.37;;
830;SDS011;397;50.564;7.272;2023-05-20T03:52:12;3.67;;;2.80;;
830;SDS011;397;50.564;7.272;2023-05-20T03:54:40;4.87;;;2.90;;
830;SDS011;397;50.564;7.272;2023-05-20T03:57:07;4.70;;;2.93;;
830;SDS011;397;50.564;7.272;2023-05-20T03:59:38;4.00;;;3.40;;
830;SDS011;397;50.564;7.272;2023-05-20T04:02:05;2.93;;;2.60;;
830;SDS011;397;50.564;7.272;2023-05-20T04:04:33;3.43;;;2.57;;
830;SDS011;397;50.564;7.272;2023-05-20T04:07:01;3.40;;;3.03;;
830;SDS011;397;50.564;7.272;2023-05-20T04:09:29;3.70;;;2.50;;
830;SDS011;397;50.564;7.272;2023-05-20T04:11:57;3.30;;;2.50;;
830;SDS011;397;50.564;7.272;2023-05-20T04:14:24;5.57;;;2.63;;
830;SDS011;397;50.564;7.272;2023-05-20T04:16:52;4.67;;;3.07;;
830;SDS011;397;50.564;7.272;2023-05-20T04:19:19;5.77;;;3.30;;
830;SDS011;397;50.564;7.272;2023-05-20T04:21:48;6.33;;;2.70;;
830;SDS011;397;50.564;7.272;2023-05-20T04:24:16;4.87;;;3.20;;
830;SDS011;397;50.564;7.272;2023-05-20T04:26:43;3.53;;;2.93;;
830;SDS011;397;50.564;7.272;2023-05-20T04:29:11;4.30;;;3.20;;
830;SDS011;397;50.564;7.272;2023-05-20T04:31:40;4.20;;;2.83;;
830;SDS011;397;50.564;7.272;2023-05-20T04:34:10;3.93;;;3.07;;
830;SDS011;397;50.564;7.272;2023-05-20T04:36:37;3.97;;;2.83;;
830;SDS011;397;50.564;7.272;2023-05-20T04:39:05;4.37;;;3.40;;
830;SDS011;397;50.564;7.272;2023-05-20T04:41:33;4.43;;;3.10;;
830;SDS011;397;50.564;7.272;2023-05-20T04:44:01;7.73;;;3.60;;
830;SDS011;397;50.564;7.272;2023-05-20T04:46:28;5.70;;;3.40;;
830;SDS011;397;50.564;7.272;2023-05-20T04:48:56;6.73;;;3.30;;
830;SDS011;397;50.564;7.272;2023-05-20T04:51:23;3.93;;;3.13;;
830;SDS011;397;50.564;7.272;2023-05-20T04:53:51;5.53;;;3.10;;
830;SDS011;397;50.564;7.272;2023-05-20T04:56:18;4.00;;;3.00;;
830;SDS011;397;50.564;7.272;2023-05-20T04:58:46;5.50;;;3.83;;
830;SDS011;397;50.564;7.272;2023-05-20T05:01:13;4.83;;;3.10;;
830;SDS011;397;50.564;7.272;2023-05-20T05:03:41;4.40;;;2.57;;
830;SDS011;397;50.564;7.272;2023-05-20T05:06:08;4.40;;;3.47;;
830;SDS011;397;50.564;7.272;2023-05-20T05:08:36;5.00;;;3.10;;
830;SDS011;397;50.564;7.272;2023-05-20T05:11:06;5.13;;;3.23;;
830;SDS011;397;50.564;7.272;2023-05-20T05:13:34;6.30;;;3.57;;
830;SDS011;397;50.564;7.272;2023-05-20T05:16:01;5.43;;;3.47;;
830;SDS011;397;50.564;7.272;2023-05-20T05:18:29;4.27;;;3.43;;
830;SDS011;397;50.564;7.272;2023-05-20T05:21:00;5.63;;;3.47;;
830;SDS011;397;50.564;7.272;2023-05-20T05:23:31;5.30;;;3.63;;
830;SDS011;397;50.564;7.272;2023-05-20T05:25:59;4.67;;;3.67;;
830;SDS011;397;50.564;7.272;2023-05-20T05:28:26;4.03;;;3.30;;
830;SDS011;397;50.564;7.272;2023-05-20T05:30:54;3.83;;;3.30;;
830;SDS011;397;50.564;7.272;2023-05-20T05:36:09;5.83;;;4.60;;
830;SDS011;397;50.564;7.272;2023-05-20T05:38:36;4.03;;;3.33;;
830;SDS011;397;50.564;7.272;2023-05-20T05:41:04;3.50;;;2.57;;
830;SDS011;397;50.564;7.272;2023-05-20T05:43:32;6.37;;;3.40;;
830;SDS011;397;50.564;7.272;2023-05-20T05:46:00;3.70;;;2.90;;
830;SDS011;397;50.564;7.272;2023-05-20T05:48:27;3.30;;;2.97;;
830;SDS011;397;50.564;7.272;2023-05-20T05:50:55;4.13;;;3.40;;
830;SDS011;397;50.564;7.272;2023-05-20T05:53:22;5.70;;;4.40;;
830;SDS011;397;50.564;7.272;2023-05-20T05:55:50;3.33;;;2.83;;
830;SDS011;397;50.564;7.272;2023-05-20T05:58:17;8.50;;;4.00;;
830;SDS011;397;50.564;7.272;2023-05-20T06:00:45;4.67;;;3.77;;
830;SDS011;397;50.564;7.272;2023-05-20T06:03:13;4.63;;;3.40;;
830;SDS011;397;50.564;7.272;2023-05-20T06:05:43;4.73;;;3.77;;
830;SDS011;397;50.564;7.272;2023-05-20T06:08:12;5.87;;;3.77;;
830;SDS011;397;50.564;7.272;2023-05-20T06:10:39;6.47;;;3.00;;
830;SDS011;397;50.564;7.272;2023-05-20T06:13:07;7.70;;;3.57;;
830;SDS011;397;50.564;7.272;2023-05-20T06:15:35;4.63;;;3.27;;
830;SDS011;397;50.564;7.272;2023-05-20T06:18:02;3.90;;;2.90;;
830;SDS011;397;50.564;7.272;2023-05-20T06:20:30;4.47;;;3.87;;
830;SDS011;397;50.564;7.272;2023-05-20T06:22:57;4.83;;;2.80;;
830;SDS011;397;50.564;7.272;2023-05-20T06:25:26;4.70;;;2.90;;
830;SDS011;397;50.564;7.272;2023-05-20T06:27:53;4.63;;;3.50;;
830;SDS011;397;50.564;7.272;2023-05-20T06:30:21;4.77;;;3.27;;
830;SDS011;397;50.564;7.272;2023-05-20T06:32:48;5.50;;;3.30;;
830;SDS011;397;50.564;7.272;2023-05-20T06:35:16;5.30;;;3.47;;
830;SDS011;397;50.564;7.272;2023-05-20T06:37:43;6.13;;;3.20;;
830;SDS011;397;50.564;7.272;2023-05-20T06:40:11;6.00;;;3.27;;
830;SDS011;397;50.564;7.272;2023-05-20T06:42:38;4.43;;;3.53;;
830;SDS011;397;50.564;7.272;2023-05-20T06:45:06;5.00;;;3.90;;
830;SDS011;397;50.564;7.272;2023-05-20T06:47:34;10.60;;;3.83;;
830;SDS011;397;50.564;7.272;2023-05-20T06:50:02;8.37;;;3.37;;
830;SDS011;397;50.564;7.272;2023-05-20T06:52:30;4.93;;;3.53;;
830;SDS011;397;50.564;7.272;2023-05-20T06:54:57;5.10;;;3.67;;
830;SDS011;397;50.564;7.272;2023-05-20T06:57:25;4.13;;;3.57;;
830;SDS011;397;50.564;7.272;2023-05-20T06:59:52;3.67;;;3.33;;
830;SDS011;397;50.564;7.272;2023-05-20T07:02:20;5.00;;;3.30;;
830;SDS011;397;50.564;7.272;2023-05-20T07:04:48;5.07;;;3.27;;
830;SDS011;397;50.564;7.272;2023-05-20T07:07:16;5.83;;;3.13;;
830;SDS011;397;50.564;7.272;2023-05-20T07:09:43;5.03;;;3.60;;
830;SDS011;397;50.564;7.272;2023-05-20T07:12:11;3.80;;;3.13;;
830;SDS011;397;50.564;7.272;2023-05-20T07:14:38;5.10;;;3.47;;
830;SDS011;397;50.564;7.272;2023-05-20T07:17:06;6.07;;;3.87;;
830;SDS011;397;50.564;7.272;2023-05-20T07:19:34;4.10;;;3.20;;
830;SDS011;397;50.564;7.272;2023-05-20T07:22:02;5.20;;;4.43;;
830;SDS011;397;50.564;7.272;2023-05-20T07:24:29;6.23;;;3.60;;
830;SDS011;397;50.564;7.272;2023-05-20T07:26:57;6.03;;;4.27;;
830;SDS011;397;50.564;7.272;2023-05-20T07:29:24;5.10;;;3.00;;
830;SDS011;397;50.564;7.272;2023-05-20T07:31:52;5.43;;;3.53;;
830;SDS011;397;50.564;7.272;2023-05-20T07:34:19;9.97;;;4.00;;
830;SDS011;397;50.564;7.272;2023-05-20T07:36:47;5.40;;;4.00;;
830;SDS011;397;50.564;7.272;2023-05-20T07:39:16;5.53;;;3.57;;
830;SDS011;397;50.564;7.272;2023-05-20T07:41:43;4.67;;;3.30;;
830;SDS011;397;50.564;7.272;2023-05-20T07:44:11;4.20;;;3.80;;
830;SDS011;397;50.564;7.272;2023-05-20T07:46:38;4.63;;;3.97;;
830;SDS011;397;50.564;7.272;2023-05-20T07:49:07;5.00;;;3.60;;
830;SDS011;397;50.564;7.272;2023-05-20T07:51:35;7.27;;;3.80;;
830;SDS011;397;50.564;7.272;2023-05-20T07:54:02;4.00;;;3.27;;
830;SDS011;397;50.564;7.272;2023-05-20T07:56:30;4.20;;;3.40;;
830;SDS011;397;50.564;7.272;2023-05-20T07:58:58;4.60;;;3.80;;
830;SDS011;397;50.564;7.272;2023-05-20T08:01:27;6.70;;;4.30;;
830;SDS011;397;50.564;7.272;2023-05-20T08:03:55;4.30;;;3.30;;
830;SDS011;397;50.564;7.272;2023-05-20T08:06:23;6.70;;;4.00;;
830;SDS011;397;50.564;7.272;2023-05-20T08:08:51;5.67;;;4.80;;
830;SDS011;397;50.564;7.272;2023-05-20T08:11:19;7.60;;;3.60;;
830;SDS011;397;50.564;7.272;2023-05-20T08:13:47;4.67;;;4.03;;
830;SDS011;397;50.564;7.272;2023-05-20T08:16:14;5.67;;;3.97;;
830;SDS011;397;50.564;7.272;2023-05-20T08:18:42;4.57;;;4.00;;
830;SDS011;397;50.564;7.272;2023-05-20T08:21:10;4.37;;;3.87;;
830;SDS011;397;50.564;7.272;2023-05-20T08:23:38;4.00;;;3.13;;
830;SDS011;397;50.564;7.272;2023-05-20T08:26:06;5.63;;;4.23;;
830;SDS011;397;50.564;7.272;2023-05-20T08:28:33;5.47;;;3.53;;
830;SDS011;397;50.564;7.272;2023-05-20T08:31:02;4.50;;;3.90;;
830;SDS011;397;50.564;7.272;2023-05-20T08:33:30;4.33;;;3.63;;
830;SDS011;397;50.564;7.272;2023-05-20T08:35:57;5.80;;;3.70;;
830;SDS011;397;50.564;7.272;2023-05-20T08:38:25;4.67;;;3.57;;
830;SDS011;397;50.564;7.272;2023-05-20T08:40:54;6.00;;;3.80;;
830;SDS011;397;50.564;7.272;2023-05-20T08:43:22;4.97;;;4.17;;
830;SDS011;397;50.564;7.272;2023-05-20T08:45:51;5.63;;;4.17;;
830;SDS011;397;50.564;7.272;2023-05-20T08:48:19;6.30;;;4.17;;
830;SDS011;397;50.564;7.272;2023-05-20T08:50:51;6.13;;;4.07;;
830;SDS011;397;50.564;7.272;2023-05-20T08:53:21;4.33;;;3.80;;
830;SDS011;397;50.564;7.272;2023-05-20T08:55:52;4.40;;;3.90;;
830;SDS011;397;50.564;7.272;2023-05-20T08:58:22;6.23;;;4.83;;
830;SDS011;397;50.564;7.272;2023-05-20T09:00:50;7.37;;;4.70;;
830;SDS011;397;50.564;7.272;2023-05-20T09:03:18;5.03;;;3.80;;
830;SDS011;397;50.564;7.272;2023-05-20T09:05:45;5.07;;;4.57;;
830;SDS011;397;50.564;7.272;2023-05-20T09:08:13;5.43;;;3.63;;
830;SDS011;397;50.564;7.272;2023-05-20T09:10:41;4.70;;;4.20;;
830;SDS011;397;50.564;7.272;2023-05-20T09:13:09;6.30;;;5.20;;
830;SDS011;397;50.564;7.272;2023-05-20T09:15:36;6.87;;;4.80;;
830;SDS011;397;50.564;7.272;2023-05-20T09:18:06;6.70;;;5.97;;
830;SDS011;397;50.564;7.272;2023-05-20T09:20:36;5.00;;;4.50;;
830;SDS011;397;50.564;7.272;2023-05-20T09:23:05;4.40;;;4.00;;
830;SDS011;397;50.564;7.272;2023-05-20T09:25:34;5.83;;;4.70;;
830;SDS011;397;50.564;7.272;2023-05-20T09:28:08;4.93;;;4.40;;
830;SDS011;397;50.564;7.272;2023-05-20T09:30:36;5.17;;;4.67;;
830;SDS011;397;50.564;7.272;2023-05-20T09:33:04;5.50;;;4.17;;
830;SDS011;397;50.564;7.272;2023-05-20T09:35:34;4.87;;;4.37;;
830;SDS011;397;50.564;7.272;2023-05-20T09:38:03;4.87;;;4.30;;
830;SDS011;397;50.564;7.272;2023-05-20T09:40:34;5.40;;;4.20;;
830;SDS011;397;50.564;7.272;2023-05-20T09:43:05;5.30;;;4.60;;
830;SDS011;397;50.564;7.272;2023-05-20T09:45:33;6.50;;;4.77;;
830;SDS011;397;50.564;7.272;2023-05-20T09:48:01;5.57;;;4.97;;
830;SDS011;397;50.564;7.272;2023-05-20T09:50:30;5.13;;;4.60;;
830;SDS011;397;50.564;7.272;2023-05-20T09:53:00;5.93;;;5.23;;
830;SDS011;397;50.564;7.272;2023-05-20T09:55:30;5.63;;;4.53;;
830;SDS011;397;50.564;7.272;2023-05-20T09:58:01;5.47;;;4.97;;
830;SDS011;397;50.564;7.272;2023-05-20T10:00:28;5.10;;;4.60;;
830;SDS011;397;50.564;7.272;2023-05-20T10:02:56;7.70;;;4.70;;
830;SDS011;397;50.564;7.272;2023-05-20T10:05:34;6.07;;;5.30;;
830;SDS011;397;50.564;7.272;2023-05-20T10:13:44;6.00;;;5.30;;
830;SDS011;397;50.564;7.272;2023-05-20T10:19:04;6.70;;;5.30;;
830;SDS011;397;50.564;7.272;2023-05-20T10:21:42;6.13;;;5.27;;
830;SDS011;397;50.564;7.272;2023-05-20T10:24:10;5.77;;;5.13;;
830;SDS011;397;50.564;7.272;2023-05-20T10:26:38;5.13;;;4.63;;
830;SDS011;397;50.564;7.272;2023-05-20T10:29:16;5.70;;;5.00;;
830;SDS011;397;50.564;7.272;2023-05-20T10:31:47;6.10;;;5.50;;
830;SDS011;397;50.564;7.272;2023-05-20T10:34:17;5.43;;;4.60;;
830;SDS011;397;50.564;7.272;2023-05-20T10:39:25;6.30;;;5.03;;
830;SDS011;397;50.564;7.272;2023-05-20T10:42:07;6.17;;;5.57;;
830;SDS011;397;50.564;7.272;2023-05-20T10:44:42;5.57;;;5.07;;
830;SDS011;397;50.564;7.272;2023-05-20T10:47:11;6.53;;;5.60;;
830;SDS011;397;50.564;7.272;2023-05-20T10:49:45;5.87;;;5.03;;
830;SDS011;397;50.564;7.272;2023-05-20T10:52:13;6.20;;;4.57;;
830;SDS011;397;50.564;7.272;2023-05-20T10:54:46;6.40;;;5.80;;
830;SDS011;397;50.564;7.272;2023-05-20T10:57:15;6.83;;;5.50;;
830;SDS011;397;50.564;7.272;2023-05-20T10:59:43;7.30;;;6.43;;
830;SDS011;397;50.564;7.272;2023-05-20T11:02:14;6.83;;;5.60;;
830;SDS011;397;50.564;7.272;2023-05-20T11:04:42;5.57;;;5.07;;
830;SDS011;397;50.564;7.272;2023-05-20T11:07:10;6.63;;;6.03;;
830;SDS011;397;50.564;7.272;2023-05-20T11:09:37;6.83;;;6.23;;
830;SDS011;397;50.564;7.272;2023-05-20T11:12:05;6.07;;;5.50;;
830;SDS011;397;50.564;7.272;2023-05-20T11:14:33;7.50;;;6.80;;
830;SDS011;397;50.564;7.272;2023-05-20T11:17:01;7.07;;;6.30;;
830;SDS011;397;50.564;7.272;2023-05-20T11:19:29;7.83;;;6.80;;
830;SDS011;397;50.564;7.272;2023-05-20T11:21:56;7.00;;;6.30;;
830;SDS011;397;50.564;7.272;2023-05-20T11:24:24;7.80;;;6.97;;
830;SDS011;397;50.564;7.272;2023-05-20T11:26:56;7.27;;;6.57;;
830;SDS011;397;50.564;7.272;2023-05-20T11:29:25;7.63;;;7.00;;
830;SDS011;397;50.564;7.272;2023-05-20T11:31:55;7.07;;;6.37;;
830;SDS011;397;50.564;7.272;2023-05-20T11:34:23;7.50;;;6.80;;
830;SDS011;397;50.564;7.272;2023-05-20T11:36:57;7.93;;;7.23;;
830;SDS011;397;50.564;7.272;2023-05-20T11:39:28;7.07;;;6.10;;
830;SDS011;397;50.564;7.272;2023-05-20T11:41:57;8.50;;;7.70;;
830;SDS011;397;50.564;7.272;2023-05-20T11:44:25;7.57;;;6.87;;
830;SDS011;397;50.564;7.272;2023-05-20T11:46:57;8.10;;;7.30;;
830;SDS011;397;50.564;7.272;2023-05-20T11:49:23;8.40;;;7.50;;
830;SDS011;397;50.564;7.272;2023-05-20T11:51:50;7.67;;;6.87;;
830;SDS011;397;50.564;7.272;2023-05-20T11:54:18;6.90;;;6.30;;
830;SDS011;397;50.564;7.272;2023-05-20T11:56:49;6.60;;;6.00;;
830;SDS011;397;50.564;7.272;2023-05-20T11:59:16;8.53;;;7.00;;
830;SDS011;397;50.564;7.272;2023-05-20T12:01:44;8.57;;;7.77;;
830;SDS011;397;50.564;7.272;2023-05-20T12:04:11;7.43;;;6.73;;
830;SDS011;397;50.564;7.272;2023-05-20T12:06:39;10.30;;;6.50;;
830;SDS011;397;50.564;7.272;2023-05-20T12:09:07;8.00;;;7.30;;
830;SDS011;397;50.564;7.272;2023-05-20T12:11:36;7.83;;;7.03;;
830;SDS011;397;50.564;7.272;2023-05-20T12:14:09;8.40;;;7.60;;
830;SDS011;397;50.564;7.272;2023-05-20T12:16:37;7.00;;;6.33;;
830;SDS011;397;50.564;7.272;2023-05-20T12:19:04;8.40;;;7.47;;
830;SDS011;397;50.564;7.272;2023-05-20T12:21:33;8.10;;;7.40;;
830;SDS011;397;50.564;7.272;2023-05-20T12:24:01;6.87;;;6.27;;
830;SDS011;397;50.564;7.272;2023-05-20T12:26:30;7.50;;;6.80;;
830;SDS011;397;50.564;7.272;2023-05-20T12:28:57;7.43;;;6.00;;
830;SDS011;397;50.564;7.272;2023-05-20T12:31:25;8.07;;;7.27;;
830;SDS011;397;50.564;7.272;2023-05-20T12:33:52;8.27;;;6.47;;
830;SDS011;397;50.564;7.272;2023-05-20T12:36:20;9.73;;;7.47;;
830;SDS011;397;50.564;7.272;2023-05-20T12:38:47;9.33;;;6.80;;
830;SDS011;397;50.564;7.272;2023-05-20T12:41:15;8.40;;;7.60;;
830;SDS011;397;50.564;7.272;2023-05-20T12:43:43;7.97;;;6.90;;
830;SDS011;397;50.564;7.272;2023-05-20T12:46:10;7.53;;;6.70;;
830;SDS011;397;50.564;7.272;2023-05-20T12:48:38;8.10;;;7.40;;
830;SDS011;397;50.564;7.272;2023-05-20T12:51:06;7.80;;;7.10;;
830;SDS011;397;50.564;7.272;2023-05-20T12:53:33;7.30;;;6.60;;
830;SDS011;397;50.564;7.272;2023-05-20T12:56:01;6.43;;;5.83;;
830;SDS011;397;50.564;7.272;2023-05-20T12:58:28;7.30;;;6.70;;
830;SDS011;397;50.564;7.272;2023-05-20T13:00:56;7.50;;;6.80;;
830;SDS011;397;50.564;7.272;2023-05-20T13:03:23;7.60;;;6.87;;
830;SDS011;397;50.564;7.272;2023-05-20T13:05:51;7.30;;;6.70;;
830;SDS011;397;50.564;7.272;2023-05-20T13:08:18;9.20;;;8.40;;
830;SDS011;397;50.564;7.272;2023-05-20T13:10:46;8.63;;;7.00;;
830;SDS011;397;50.564;7.272;2023-05-20T13:13:13;7.40;;;6.70;;
830;SDS011;397;50.564;7.272;2023-05-20T13:15:42;8.20;;;7.50;;
830;SDS011;397;50.564;7.272;2023-05-20T13:18:10;8.47;;;7.67;;
830;SDS011;397;50.564;7.272;2023-05-20T13:20:38;9.67;;;7.60;;
830;SDS011;397;50.564;7.272;2023-05-20T13:23:06;9.60;;;8.17;;
830;SDS011;397;50.564;7.272;2023-05-20T13:25:33;8.60;;;6.90;;
830;SDS011;397;50.564;7.272;2023-05-20T13:28:02;9.00;;;8.20;;
830;SDS011;397;50.564;7.272;2023-05-20T13:30:31;8.37;;;7.47;;
830;SDS011;397;50.564;7.272;2023-05-20T13:32:58;8.07;;;6.90;;
830;SDS011;397;50.564;7.272;2023-05-20T13:35:26;6.53;;;5.80;;
830;SDS011;397;50.564;7.272;2023-05-20T13:37:53;6.50;;;5.90;;
830;SDS011;397;50.564;7.272;2023-05-20T13:40:21;7.43;;;6.80;;
830;SDS011;397;50.564;7.272;2023-05-20T13:42:48;7.50;;;6.80;;
830;SDS011;397;50.564;7.272;2023-05-20T13:45:16;7.20;;;6.50;;
830;SDS011;397;50.564;7.272;2023-05-20T13:47:43;7.33;;;6.63;;
830;SDS011;397;50.564;7.272;2023-05-20T13:50:11;7.50;;;6.60;;
830;SDS011;397;50.564;7.272;2023-05-20T13:52:39;8.17;;;7.40;;
830;SDS011;397;50.564;7.272;2023-05-20T13:55:07;8.70;;;7.90;;
830;SDS011;397;50.564;7.272;2023-05-20T13:57:34;6.70;;;6.10;;
830;SDS011;397;50.564;7.272;2023-05-20T14:00:02;7.90;;;6.67;;
830;SDS011;397;50.564;7.272;2023-05-20T14:02:30;8.43;;;6.90;;
830;SDS011;397;50.564;7.272;2023-05-20T14:04:57;9.03;;;7.10;;
830;SDS011;397;50.564;7.272;2023-05-20T14:07:25;9.43;;;6.60;;
830;SDS011;397;50.564;7.272;2023-05-20T14:09:52;7.17;;;6.43;;
830;SDS011;397;50.564;7.272;2023-05-20T14:12:20;8.20;;;7.40;;
830;SDS011;397;50.564;7.272;2023-05-20T14:14:49;7.50;;;6.80;;
830;SDS011;397;50.564;7.272;2023-05-20T14:17:16;8.80;;;6.97;;
830;SDS011;397;50.564;7.272;2023-05-20T14:19:44;7.93;;;7.13;;
830;SDS011;397;50.564;7.272;2023-05-20T14:22:11;8.43;;;7.73;;
830;SDS011;397;50.564;7.272;2023-05-20T14:24:40;7.97;;;7.20;;
830;SDS011;397;50.564;7.272;2023-05-20T14:27:07;8.20;;;7.50;;
830;SDS011;397;50.564;7.272;2023-05-20T14:29:36;7.57;;;6.80;;
830;SDS011;397;50.564;7.272;2023-05-20T14:32:03;7.83;;;7.03;;
830;SDS011;397;50.564;7.272;2023-05-20T14:34:31;8.03;;;7.23;;
830;SDS011;397;50.564;7.272;2023-05-20T14:36:59;8.63;;;7.73;;
830;SDS011;397;50.564;7.272;2023-05-20T14:39:28;7.77;;;7.07;;
830;SDS011;397;50.564;7.272;2023-05-20T14:41:55;8.53;;;7.73;;
830;SDS011;397;50.564;7.272;2023-05-20T14:44:23;9.80;;;7.17;;
830;SDS011;397;50.564;7.272;2023-05-20T14:46:50;8.97;;;8.07;;
830;SDS011;397;50.564;7.272;2023-05-20T14:49:18;8.13;;;7.33;;
830;SDS011;397;50.564;7.272;2023-05-20T14:51:45;8.40;;;7.70;;
830;SDS011;397;50.564;7.272;2023-05-20T14:54:13;7.27;;;6.57;;
830;SDS011;397;50.564;7.272;2023-05-20T14:56:41;8.60;;;7.63;;
830;SDS011;397;50.564;7.272;2023-05-20T14:59:09;7.47;;;6.70;;
830;SDS011;397;50.564;7.272;2023-05-20T15:01:36;7.00;;;6.33;;
830;SDS011;397;50.564;7.272;2023-05-20T15:04:04;8.30;;;7.50;;
830;SDS011;397;50.564;7.272;2023-05-20T15:06:31;8.60;;;7.70;;
830;SDS011;397;50.564;7.272;2023-05-20T15:09:01;8.83;;;7.43;;
830;SDS011;397;50.564;7.272;2023-05-20T15:11:28;8.60;;;7.70;;
830;SDS011;397;50.564;7.272;2023-05-20T15:13:56;7.50;;;6.80;;
830;SDS011;397;50.564;7.272;2023-05-20T15:16:23;8.33;;;7.63;;
830;SDS011;397;50.564;7.272;2023-05-20T15:18:51;9.67;;;7.60;;
830;SDS011;397;50.564;7.272;2023-05-20T15:21:18;9.40;;;7.40;;
830;SDS011;397;50.564;7.272;2023-05-20T15:23:46;9.87;;;7.43;;
830;SDS011;397;50.564;7.272;2023-05-20T15:26:13;7.53;;;6.93;;
830;SDS011;397;50.564;7.272;2023-05-20T15:28:41;6.37;;;5.80;;
830;SDS011;397;50.564;7.272;2023-05-20T15:31:08;8.27;;;7.57;;
830;SDS011;397;50.564;7.272;2023-05-20T15:33:36;7.63;;;6.10;;
830;SDS011;397;50.564;7.272;2023-05-20T15:36:03;9.03;;;8.23;;
830;SDS011;397;50.564;7.272;2023-05-20T15:38:31;6.80;;;6.13;;
830;SDS011;397;50.564;7.272;2023-05-20T15:40:59;8.13;;;7.33;;
830;SDS011;397;50.564;7.272;2023-05-20T15:43:26;7.00;;;6.27;;
830;SDS011;397;50.564;7.272;2023-05-20T15:45:54;8.00;;;7.20;;
830;SDS011;397;50.564;7.272;2023-05-20T15:48:21;7.33;;;6.63;;
830;SDS011;397;50.564;7.272;2023-05-20T15:50:49;6.90;;;6.20;;
830;SDS011;397;50.564;7.272;2023-05-20T15:53:16;7.00;;;6.40;;
830;SDS011;397;50.564;7.272;2023-05-20T15:55:44;7.43;;;6.67;;
830;SDS011;397;50.564;7.272;2023-05-20T15:58:12;9.10;;;7.00;;
830;SDS011;397;50.564;7.272;2023-05-20T16:00:39;8.27;;;6.97;;
830;SDS011;397;50.564;7.272;2023-05-20T16:03:07;7.73;;;6.97;;